• Join FlightAware (Why Join?)
  • Login
  • US Flag 
01:51AM EDT


 

Airport Tracker/Info


-or-


 

Live Flight TrackerFlight Track Log ✈ EGF4174 ✈ 28-Apr-2013 ✈ KSYR - KORD

Flight Track Log - Related Links

Times and Time Zones

All times are in EDT time to prevent confusion due to time zone crossing. See the EGF4174 flight status page for this flight to view local times or setup timezone preferences in your user account.

Time Position Orientation Groundspeed Altitude Reporting Facility
EDT Latitude Longitude Course Direction KTS MPH feet Rate Location/Type
04:59PM 43.1092 -76.0864 286° West 157 181 1,100  Level Boston Center
05:00PM 43.1281 -76.0164 70° East 221 254 3,200 2,220 Climbing Boston Center
05:01PM 43.1747 -76.0506 332° Northwest 237 273 5,400 1,800 Climbing Boston Center
05:02PM 43.1943 -76.4443 324° Northwest  Level FlightAware Approximate
05:03PM 43.2094 -76.5660 281° West  Level FlightAware Approximate
05:03PM 43.1769 -76.1842 271° West 242 278 7,800  Level Cleveland Center
05:04PM 43.2322 -76.6889 286° West  Level FlightAware Approximate
05:04PM 43.1789 -76.2922 271° West 264 304 10,200  Level Cleveland Center
05:05PM 43.2583 -76.8109 286° West  Level FlightAware Approximate
05:05PM 43.1936 -76.4081 280° West 291 335 11,400  Level Cleveland Center
05:06PM 43.2125 -76.5294 282° West 319 367 12,900 1,500 Climbing Cleveland Center
05:07PM 43.2358 -76.6589 284° West 337 388 14,400 1,380 Climbing Cleveland Center
05:08PM 43.2586 -76.7858 284° West 342 394 15,700 1,320 Climbing Cleveland Center
05:09PM 43.2797 -76.9214 282° West 356 410 17,100 1,320 Climbing Cleveland Center
05:10PM 43.3006 -77.0544 282° West 361 415 18,400 1,380 Climbing Cleveland Center
05:11PM 43.3047 -77.1939 272° West 361 415 19,900 1,320 Climbing Cleveland Center
05:12PM 43.2856 -77.3292 259° West 366 421 21,100 1,200 Climbing Cleveland Center
05:13PM 43.2644 -77.4700 258° West 371 427 22,400 1,200 Climbing Cleveland Center
05:14PM 43.2453 -77.6078 259° West 371 427 23,500 1,140 Climbing Cleveland Center
05:15PM 43.2281 -77.7511 261° West 376 433 24,700 1,200 Climbing Cleveland Center
05:16PM 43.2103 -77.8858 260° West 376 433 25,900 1,200 Climbing Cleveland Center
05:17PM 43.1906 -78.0233 259° West 376 433 27,100 1,200 Climbing Cleveland Center
05:18PM 43.1706 -78.1608 259° West 376 433 28,300 1,140 Climbing Cleveland Center
05:19PM 43.1525 -78.2925 259° West 370 426 29,400 1,020 Climbing Cleveland Center
05:20PM 43.1406 -78.4294 263° West 370 426 30,400 960 Climbing Cleveland Center
05:21PM 43.1367 -78.5661 268° West 370 426 31,400 960 Climbing Cleveland Center
05:22PM 43.1328 -78.7086 268° West 370 426 32,400 1,140 Climbing Cleveland Center
05:23PM 43.1286 -78.8481 268° West 370 426 33,700 780 Climbing Cleveland Center
05:24PM 43.1078 -78.9822 258° West 370 426 34,000 600 Climbing Cleveland Center
05:25PM 43.0833 -79.0833 252° West 370 426 34,800 960 Climbing Toronto Center
05:26PM 43.0500 -79.2000 249° West 360 414 35,800 600 Climbing Toronto Center
05:27PM 43.0333 -79.3667 262° West 360 414 36,000 60 Climbing Toronto Center
05:28PM 43.0333 -79.5000 270° West 390 449 36,000  Level Toronto Center
05:29PM 43.0333 -79.6500 270° West 400 460 36,000  Level Toronto Center
05:30PM 43.0333 -79.8167 270° West 420 483 36,000  Level Toronto Center
05:31PM 43.0333 -79.9833 270° West 420 483 36,000  Level Toronto Center
05:33PM 43.0333 -80.2667 270° West 410 472 36,000  Level Toronto Center
05:34PM 43.0333 -80.4333 270° West 410 472 36,000  Level Toronto Center
05:35PM 43.0333 -80.5833 270° West 420 483 36,000  Level Toronto Center
05:36PM 43.0333 -80.7500 270° West 420 483 36,000  Level Toronto Center
05:37PM 43.0167 -80.9167 262° West 420 483 36,000  Level Toronto Center
05:38PM 43.0167 -81.0667 270° West 410 472 36,000  Level Toronto Center
05:39PM 43.0167 -81.2333 270° West 410 472 36,000  Level Toronto Center
05:40PM 43.0167 -81.3833 270° West 410 472 36,000  Level Toronto Center
05:41PM 43.0167 -81.5333 270° West 410 472 36,000  Level Toronto Center
05:42PM 43.0167 -81.6833 270° West 410 472 36,000  Level Toronto Center
05:43PM 43.0167 -81.8667 270° West 420 483 36,000  Level Toronto Center
05:44PM 43.0000 -82.0000 260° West 420 483 36,000  Level Toronto Center
05:45PM 43.0000 -82.1833 270° West 420 483 36,000  Level Toronto Center
05:46PM 43.0000 -82.3167 270° West 420 483 36,000  Level Toronto Center
05:47PM 43.0000 -82.5000 270° West 420 483 36,000  Level Toronto Center
05:48PM 42.9833 -82.6667 262° West 420 483 36,000  Level Toronto Center
05:49PM 42.9833 -82.8000 270° West 420 483 36,000  Level Toronto Center
05:49PM 42.9903 -82.9447 274° West 422 486 36,000  Level Cleveland Center
05:50PM 42.9869 -83.1064 268° West 422 486 36,000  Level Cleveland Center
05:51PM 42.9814 -83.2650 267° West 422 486 36,000  Level Cleveland Center
05:52PM 42.9775 -83.4267 268° West 422 486 36,000  Level Cleveland Center
05:53PM 42.9711 -83.5911 267° West 422 486 36,000  Level Cleveland Center
05:54PM 42.9647 -83.7525 267° West 422 486 36,000 -240 Level Cleveland Center
05:55PM 42.9497 -83.9133 263° West 422 486 35,600 -960 Descending Cleveland Center
05:56PM 42.9344 -84.0800 263° West 429 494 34,100 -1,500 Descending Cleveland Center
05:57PM 42.9169 -84.2433 262° West 434 499 32,600 -960 Descending Cleveland Center
05:59PM 42.8950 -84.4753 263° West 442 509 32,000 -300 Descending Chicago Center
06:00PM 42.8783 -84.6428 262° West 448 516 32,000  Level Chicago Center
06:01PM 42.8603 -84.8108 262° West 449 517 32,000  Level Chicago Center
06:02PM 42.8433 -84.9742 262° West 440 506 32,000  Level Chicago Center
06:03PM 42.8258 -85.1375 262° West 437 503 32,000 -240 Level Chicago Center
06:04PM 42.8081 -85.3003 262° West 434 499 31,600 -1,380 Descending Chicago Center
06:05PM 42.7900 -85.4642 262° West 437 503 29,200 -2,580 Descending Chicago Center
06:06PM 42.7586 -85.6556 257° West 430 495 26,300 -2,580 Descending Chicago Center
06:07PM 42.7300 -85.8097 256° West 422 486 23,900 -2,160 Descending Chicago Center
06:08PM 42.7028 -85.9606 256° West 413 475 21,900 -1,680 Descending Chicago Center
06:09PM 42.6767 -86.1044 256° West 398 458 20,500 -960 Descending Chicago Center
06:10PM 42.6500 -86.2472 256° West 391 450 20,000 -300 Descending Chicago Center
06:11PM 42.6239 -86.3864 256° West 382 440 20,000 -540 Level Chicago Center
06:12PM 42.5967 -86.5272 255° West 384 442 18,900 -2,220 Descending Chicago Center
06:13PM 42.5664 -86.6947 256° West 382 440 15,500 -2,760 Descending Chicago Center
06:14PM 42.5358 -86.8219 252° West 360 414 13,200 -2,100 Descending Chicago Center
06:15PM 42.5017 -86.9425 249° West 347 399 11,200 -1,560 Descending Chicago Center
06:16PM 42.4686 -87.0603 249° West 338 389 10,000 -780 Descending Chicago Center
06:17PM 42.4392 -87.1683 250° West 308 354 9,700 -540 Descending Chicago Center
06:18PM 42.4058 -87.2614 244° Southwest 281 323 9,000 -660 Descending Chicago Center
06:19PM 42.3606 -87.3739 241° Southwest 285 328 8,400 -780 Descending Chicago Center
06:21PM 42.3242 -87.4672 242° Southwest 284 327 7,400 -720 Descending Chicago Center
06:22PM 42.2875 -87.5622 242° Southwest 278 320 7,000 -300 Descending Chicago Center
06:23PM 42.2392 -87.6317 227° Southwest 268 308 6,900 -780 Descending Chicago Center
06:24PM 42.1789 -87.6944 218° Southwest 275 316 5,400 -1,440 Descending Chicago Center
06:25PM 42.1275 -87.7547 221° Southwest 255 293 4,000 -1,380 Descending Chicago Center